createdAt,value
2022-10-11T00:02:04.289Z,5.00
2022-10-11T00:04:52.997Z,4.05
2022-10-11T00:07:38.740Z,4.30
2022-10-11T00:10:25.070Z,4.50
2022-10-11T00:13:10.873Z,4.43
2022-10-11T00:15:57.121Z,4.28
2022-10-11T00:18:42.697Z,4.43
2022-10-11T00:21:28.063Z,3.90
2022-10-11T00:24:16.026Z,3.83
2022-10-11T00:27:01.806Z,4.85
2022-10-11T00:29:47.214Z,4.28
2022-10-11T00:32:34.434Z,4.70
2022-10-11T00:35:20.059Z,4.50
2022-10-11T00:38:05.344Z,3.42
2022-10-11T00:40:50.935Z,3.55
2022-10-11T00:43:37.120Z,3.63
2022-10-11T00:46:28.457Z,4.43
2022-10-11T00:49:21.361Z,3.50
2022-10-11T00:52:31.942Z,4.65
2022-10-11T00:55:20.347Z,3.97
2022-10-11T00:58:06.940Z,3.42
2022-10-11T01:00:53.266Z,4.00
2022-10-11T01:03:39.196Z,3.22
2022-10-11T01:06:25.031Z,3.15
2022-10-11T01:09:12.175Z,3.45
2022-10-11T01:12:01.252Z,3.35
2022-10-11T01:14:56.275Z,3.17
2022-10-11T01:17:53.951Z,3.40
2022-10-11T01:21:17.467Z,3.38
2022-10-11T01:24:21.266Z,3.45
2022-10-11T01:27:28.295Z,3.53
2022-10-11T01:30:30.085Z,3.53
2022-10-11T01:33:19.019Z,3.28
2022-10-11T01:36:43.049Z,4.15
2022-10-11T01:39:36.670Z,4.28
2022-10-11T01:42:23.461Z,3.17
2022-10-11T01:45:13.986Z,3.83
2022-10-11T01:48:11.434Z,3.22
2022-10-11T01:50:58.788Z,3.95
2022-10-11T01:54:04.338Z,3.42
2022-10-11T01:56:58.923Z,3.47
2022-10-11T02:00:05.778Z,3.40
2022-10-11T02:03:34.079Z,3.50
2022-10-11T02:06:43.768Z,4.53
2022-10-11T02:09:35.592Z,3.30
2022-10-11T02:12:32.223Z,3.30
2022-10-11T02:15:20.716Z,3.92
2022-10-11T02:18:11.634Z,4.13
2022-10-11T02:21:00.699Z,3.58
2022-10-11T02:23:58.988Z,4.10
2022-10-11T02:26:48.996Z,3.67
2022-10-11T02:29:37.923Z,3.63
2022-10-11T02:32:25.567Z,3.78
2022-10-11T02:35:12.348Z,3.78
2022-10-11T02:38:05.627Z,4.53
2022-10-11T02:40:57.798Z,4.00
2022-10-11T02:43:49.384Z,3.83
2022-10-11T02:46:35.930Z,3.80
2022-10-11T02:49:21.918Z,4.35
2022-10-11T02:52:07.606Z,4.07
2022-10-11T02:54:53.253Z,3.65
2022-10-11T02:57:38.757Z,3.08
2022-10-11T03:00:25.168Z,3.17
2022-10-11T03:03:10.510Z,3.28
2022-10-11T03:06:04.439Z,4.10
2022-10-11T03:08:50.221Z,4.00
2022-10-11T03:11:35.935Z,4.22
2022-10-11T03:14:21.498Z,3.55
2022-10-11T03:17:31.088Z,3.78
2022-10-11T03:20:12.819Z,4.05
2022-10-11T03:22:58.429Z,3.40
2022-10-11T03:25:45.584Z,3.40
2022-10-11T03:28:31.535Z,3.58
2022-10-11T03:31:18.578Z,3.30
2022-10-11T03:34:04.196Z,3.95
2022-10-11T03:36:49.656Z,4.35
2022-10-11T03:39:35.265Z,3.97
2022-10-11T03:42:20.886Z,4.75
2022-10-11T03:45:08.880Z,4.00
2022-10-11T03:47:54.459Z,3.55
2022-10-11T03:50:40.340Z,3.75
2022-10-11T03:53:26.066Z,4.15
2022-10-11T03:56:12.059Z,3.55
2022-10-11T03:58:58.031Z,4.70
2022-10-11T04:01:43.623Z,4.38
2022-10-11T04:04:29.009Z,3.92
2022-10-11T04:07:14.550Z,4.20
2022-10-11T04:10:00.368Z,4.43
2022-10-11T04:12:48.071Z,5.45
2022-10-11T04:15:33.807Z,4.40
2022-10-11T04:18:19.750Z,4.78
2022-10-11T04:21:05.483Z,3.83
2022-10-11T04:23:51.143Z,5.03
2022-10-11T04:26:36.824Z,4.70
2022-10-11T04:29:22.556Z,4.18
2022-10-11T04:32:09.330Z,4.47
2022-10-11T04:34:55.177Z,4.55
2022-10-11T04:37:40.654Z,4.95
2022-10-11T04:40:26.248Z,5.05
2022-10-11T04:43:11.777Z,4.68
2022-10-11T04:45:57.521Z,4.43
2022-10-11T04:48:43.176Z,4.43
2022-10-11T04:51:29.026Z,4.25
2022-10-11T04:54:15.234Z,3.92
2022-10-11T04:57:00.749Z,4.38
2022-10-11T04:59:49.991Z,4.18
2022-10-11T05:02:35.976Z,4.38
2022-10-11T05:05:21.588Z,4.80
2022-10-11T05:08:07.047Z,4.57
2022-10-11T05:11:01.708Z,4.28
2022-10-11T05:13:47.488Z,5.25
2022-10-11T05:16:33.324Z,4.85
2022-10-11T05:19:18.953Z,5.00
2022-10-11T05:22:04.543Z,4.50
2022-10-11T05:24:49.911Z,4.15
2022-10-11T05:27:35.676Z,5.47
2022-10-11T05:30:24.091Z,4.88
2022-10-11T05:33:09.642Z,5.07
2022-10-11T05:35:55.602Z,4.28
2022-10-11T05:38:41.406Z,5.05
2022-10-11T05:41:27.245Z,5.40
2022-10-11T05:44:12.932Z,5.32
2022-10-11T05:46:58.408Z,5.55
2022-10-11T05:49:44.060Z,5.03
2022-10-11T05:52:30.407Z,5.38
2022-10-11T05:55:16.134Z,5.85
2022-10-11T05:58:01.782Z,5.03
2022-10-11T06:00:47.385Z,5.10
2022-10-11T06:03:32.856Z,5.72
2022-10-11T06:06:19.432Z,5.07
2022-10-11T06:09:04.881Z,5.13
2022-10-11T06:11:50.641Z,4.57
2022-10-11T06:14:36.068Z,5.40
2022-10-11T06:17:22.502Z,5.25
2022-10-11T06:20:08.299Z,6.15
2022-10-11T06:22:54.006Z,5.85
2022-10-11T06:25:39.404Z,5.47
2022-10-11T06:28:27.400Z,5.50
2022-10-11T06:31:13.450Z,6.30
2022-10-11T06:33:59.784Z,6.25
2022-10-11T06:36:45.512Z,8.50
2022-10-11T06:39:30.985Z,6.25
2022-10-11T06:42:17.092Z,6.97
2022-10-11T06:45:02.758Z,6.70
2022-10-11T06:47:48.556Z,5.60
2022-10-11T06:50:57.947Z,6.65
2022-10-11T06:53:39.885Z,6.22
2022-10-11T06:56:28.418Z,6.93
2022-10-11T06:59:15.009Z,7.38
2022-10-11T07:02:00.864Z,8.27
2022-10-11T07:04:46.369Z,6.18
2022-10-11T07:07:32.112Z,6.63
2022-10-11T07:10:17.715Z,6.57
2022-10-11T07:13:03.305Z,5.90
2022-10-11T07:15:49.072Z,6.30
2022-10-11T07:18:34.529Z,6.63
2022-10-11T07:21:20.144Z,5.82
2022-10-11T07:24:06.046Z,7.10
2022-10-11T07:26:51.485Z,5.47
2022-10-11T07:29:36.910Z,6.47
2022-10-11T07:32:22.453Z,6.40
2022-10-11T07:35:08.235Z,6.03
2022-10-11T07:37:53.958Z,6.50
2022-10-11T07:40:45.159Z,6.28
2022-10-11T07:43:30.802Z,6.72
2022-10-11T07:46:17.620Z,8.32
2022-10-11T07:49:02.867Z,7.25
2022-10-11T07:51:48.462Z,6.60
2022-10-11T07:54:34.125Z,6.38
2022-10-11T07:57:19.686Z,6.85
2022-10-11T08:00:06.252Z,7.00
2022-10-11T08:02:57.684Z,6.68
2022-10-11T08:05:44.293Z,6.75
2022-10-11T08:08:31.157Z,6.40
2022-10-11T08:11:31.702Z,6.13
2022-10-11T08:14:18.257Z,6.47
2022-10-11T08:17:03.956Z,6.50
2022-10-11T08:19:49.613Z,7.47
2022-10-11T08:22:35.465Z,6.68
2022-10-11T08:25:21.195Z,6.90
2022-10-11T08:28:07.384Z,7.60
2022-10-11T08:30:54.411Z,6.80
2022-10-11T08:33:40.086Z,7.22
2022-10-11T08:36:25.792Z,8.80
2022-10-11T08:39:11.735Z,8.65
2022-10-11T08:42:05.096Z,11.02
2022-10-11T08:45:10.557Z,9.60
2022-10-11T08:48:06.108Z,11.52
2022-10-11T08:50:54.364Z,12.68
2022-10-11T08:53:45.592Z,11.20
2022-10-11T08:56:35.328Z,10.85
2022-10-11T08:59:30.280Z,8.82
2022-10-11T09:02:49.193Z,9.35
2022-10-11T09:05:57.546Z,10.95
2022-10-11T09:08:42.809Z,10.02
2022-10-11T09:12:16.538Z,9.15
2022-10-11T09:15:41.539Z,8.80
2022-10-11T09:19:03.557Z,8.23
2022-10-11T09:22:03.841Z,7.60
2022-10-11T09:25:17.903Z,7.88
2022-10-11T09:28:35.535Z,7.18
2022-10-11T09:31:23.286Z,7.55
2022-10-11T09:34:14.450Z,8.60
2022-10-11T09:37:11.453Z,8.48
2022-10-11T09:40:18.115Z,9.02
2022-10-11T09:43:03.373Z,9.23
2022-10-11T09:45:49.801Z,12.30
2022-10-11T09:48:41.280Z,11.52
2022-10-11T09:51:28.624Z,13.32
2022-10-11T09:54:14.515Z,14.13
2022-10-11T09:57:00.185Z,13.48
2022-10-11T10:00:03.276Z,13.50
2022-10-11T10:02:59.142Z,14.13
2022-10-11T10:05:44.665Z,13.15
2022-10-11T10:08:30.257Z,13.68
2022-10-11T10:11:16.310Z,14.30
2022-10-11T10:14:02.163Z,13.52
2022-10-11T10:16:47.900Z,14.55
2022-10-11T10:19:44.671Z,15.88
2022-10-11T10:22:34.856Z,15.48
2022-10-11T10:25:25.800Z,15.73
2022-10-11T10:28:37.714Z,15.43
2022-10-11T10:35:22.631Z,17.40
2022-10-11T10:38:51.888Z,17.90
2022-10-11T10:41:37.661Z,18.30
2022-10-11T10:44:23.328Z,17.73
2022-10-11T10:47:20.927Z,18.52
2022-10-11T10:50:17.928Z,17.10
2022-10-11T10:53:21.517Z,15.77
2022-10-11T10:56:24.853Z,19.42
2022-10-11T10:59:42.324Z,16.05
2022-10-11T11:02:41.315Z,17.13
2022-10-11T11:05:54.067Z,15.07
2022-10-11T11:08:45.315Z,14.63
2022-10-11T11:11:52.050Z,16.67
2022-10-11T11:14:52.710Z,14.10
2022-10-11T11:17:47.422Z,13.68
2022-10-11T11:20:53.888Z,12.38
2022-10-11T11:24:13.589Z,12.73
2022-10-11T11:27:14.457Z,11.20
2022-10-11T11:30:16.401Z,11.60
2022-10-11T11:33:22.312Z,9.98
2022-10-11T11:36:41.716Z,10.77
2022-10-11T11:39:35.764Z,10.18
2022-10-11T11:42:43.993Z,9.05
2022-10-11T11:45:41.987Z,7.95
2022-10-11T11:48:27.621Z,9.35
2022-10-11T11:51:27.785Z,7.72
2022-10-11T11:54:30.323Z,7.80
2022-10-11T11:57:27.112Z,8.57
2022-10-11T12:00:23.184Z,9.07
2022-10-11T12:03:17.019Z,7.95
2022-10-11T12:06:14.837Z,7.97
2022-10-11T12:09:17.958Z,6.97
2022-10-11T12:12:09.266Z,7.13
2022-10-11T12:15:10.135Z,7.40
2022-10-11T12:17:55.900Z,7.22
2022-10-11T12:20:42.980Z,7.07
2022-10-11T12:23:28.969Z,7.78
2022-10-11T12:26:30.486Z,7.43
2022-10-11T12:29:20.759Z,7.43
2022-10-11T12:32:10.860Z,6.72
2022-10-11T12:35:30.857Z,7.43
2022-10-11T12:38:22.581Z,7.03
2022-10-11T12:41:11.106Z,7.68
2022-10-11T12:44:15.039Z,7.80
2022-10-11T12:47:32.712Z,7.10
2022-10-11T12:50:28.005Z,7.95
2022-10-11T12:53:50.637Z,6.82
2022-10-11T12:59:47.810Z,7.20
2022-10-11T13:02:42.509Z,7.03
2022-10-11T13:05:48.687Z,6.40
2022-10-11T13:08:40.206Z,6.60
2022-10-11T13:11:32.316Z,6.32
2022-10-11T13:14:29.458Z,6.93
2022-10-11T13:17:17.006Z,6.13
2022-10-11T13:20:26.599Z,6.93
2022-10-11T13:23:20.657Z,6.28
2022-10-11T13:26:06.527Z,6.65
2022-10-11T13:28:52.285Z,7.47
2022-10-11T13:31:40.713Z,8.18
2022-10-11T13:34:30.602Z,6.18
2022-10-11T13:37:23.149Z,6.18
2022-10-11T13:40:15.002Z,6.32
2022-10-11T13:43:00.911Z,6.30
2022-10-11T13:45:47.087Z,5.22
2022-10-11T13:48:39.880Z,6.28
2022-10-11T13:51:36.001Z,6.53
2022-10-11T13:54:21.558Z,6.28
2022-10-11T13:57:13.329Z,5.95
2022-10-11T13:59:59.062Z,6.50
2022-10-11T14:02:54.694Z,5.80
2022-10-11T14:05:52.276Z,6.05
2022-10-11T14:08:44.537Z,7.55
2022-10-11T14:11:39.656Z,5.97
2022-10-11T14:14:35.279Z,6.80
2022-10-11T14:17:24.644Z,4.97
2022-10-11T14:20:23.467Z,6.03
2022-10-11T14:23:09.122Z,5.85
2022-10-11T14:25:54.484Z,6.93
2022-10-11T14:28:40.592Z,6.50
2022-10-11T14:31:26.968Z,6.85
2022-10-11T14:34:21.565Z,5.47
2022-10-11T14:37:07.312Z,6.10
2022-10-11T14:39:52.865Z,5.85
2022-10-11T14:42:38.342Z,5.72
2022-10-11T14:45:24.128Z,5.85
2022-10-11T14:48:09.377Z,6.55
2022-10-11T14:50:59.292Z,6.25
2022-10-11T14:53:46.394Z,6.57
2022-10-11T14:56:32.016Z,8.15
2022-10-11T14:59:21.215Z,9.35
2022-10-11T15:02:08.674Z,7.68
2022-10-11T15:04:54.009Z,8.32
2022-10-11T15:07:39.473Z,5.72
2022-10-11T15:10:27.817Z,6.53
2022-10-11T15:13:13.048Z,6.22
2022-10-11T15:15:58.573Z,6.10
2022-10-11T15:18:44.370Z,6.70
2022-10-11T15:21:30.311Z,6.07
2022-10-11T15:24:16.335Z,6.13
2022-10-11T15:27:02.073Z,6.80
2022-10-11T15:29:47.618Z,6.57
2022-10-11T15:32:33.101Z,6.15
2022-10-11T15:35:19.843Z,6.47
2022-10-11T15:38:05.587Z,6.88
2022-10-11T15:40:51.972Z,6.40
2022-10-11T15:43:37.549Z,6.72
2022-10-11T15:46:23.605Z,7.00
2022-10-11T15:49:13.455Z,6.70
2022-10-11T15:51:58.982Z,6.50
2022-10-11T15:54:44.546Z,6.35
2022-10-11T15:57:30.119Z,6.07
2022-10-11T16:00:21.265Z,6.93
2022-10-11T16:03:07.793Z,6.85
2022-10-11T16:05:54.635Z,6.68
2022-10-11T16:08:40.541Z,6.57
2022-10-11T16:11:26.250Z,7.18
2022-10-11T16:14:11.997Z,6.85
2022-10-11T16:17:04.739Z,7.45
2022-10-11T16:19:51.570Z,6.93
2022-10-11T16:22:36.958Z,6.68
2022-10-11T16:25:22.660Z,7.05
2022-10-11T16:28:08.968Z,6.68
2022-10-11T16:30:54.915Z,6.72
2022-10-11T16:33:45.879Z,6.65
2022-10-11T16:36:31.883Z,6.68
2022-10-11T16:39:18.476Z,7.65
2022-10-11T16:42:03.912Z,6.40
2022-10-11T16:44:49.739Z,6.68
2022-10-11T16:47:35.274Z,7.45
2022-10-11T16:50:20.862Z,7.68
2022-10-11T16:53:06.552Z,7.05
2022-10-11T16:55:52.311Z,7.72
2022-10-11T16:58:38.014Z,7.85
2022-10-11T17:01:23.668Z,8.10
2022-10-11T17:04:09.773Z,7.45
2022-10-11T17:06:56.373Z,8.35
2022-10-11T17:09:44.294Z,9.13
2022-10-11T17:12:31.996Z,8.07
2022-10-11T17:15:17.782Z,7.72
2022-10-11T17:18:03.579Z,7.35
2022-10-11T17:20:49.699Z,7.30
2022-10-11T17:23:36.274Z,8.27
2022-10-11T17:26:26.227Z,6.43
2022-10-11T17:31:58.759Z,7.40
2022-10-11T17:34:44.195Z,7.70
2022-10-11T17:37:29.683Z,7.13
2022-10-11T17:40:15.713Z,7.97
2022-10-11T17:43:01.169Z,7.72
2022-10-11T17:45:55.285Z,7.43
2022-10-11T17:48:41.594Z,7.68
2022-10-11T17:51:27.440Z,7.32
2022-10-11T17:54:13.422Z,7.15
2022-10-11T17:56:59.019Z,7.97
2022-10-11T17:59:44.584Z,7.05
2022-10-11T18:02:30.386Z,6.90
2022-10-11T18:05:17.618Z,7.38
2022-10-11T18:08:02.968Z,7.00
2022-10-11T18:10:48.621Z,6.90
2022-10-11T18:13:34.295Z,7.53
2022-10-11T18:16:22.641Z,7.07
2022-10-11T18:19:11.054Z,7.30
2022-10-11T18:21:56.722Z,7.32
2022-10-11T18:24:42.315Z,7.53
2022-10-11T18:27:28.613Z,7.45
2022-10-11T18:30:17.085Z,7.97
2022-10-11T18:33:02.559Z,8.90
2022-10-11T18:35:48.149Z,8.55
2022-10-11T18:38:34.798Z,9.38
2022-10-11T18:41:42.880Z,9.10
2022-10-11T18:44:37.177Z,9.32
2022-10-11T18:47:22.786Z,9.13
2022-10-11T18:50:09.695Z,9.73
2022-10-11T18:52:55.445Z,11.25
2022-10-11T18:55:40.928Z,10.13
2022-10-11T18:58:26.847Z,9.75
2022-10-11T19:01:16.195Z,10.60
2022-10-11T19:04:05.931Z,10.30
2022-10-11T19:06:55.758Z,10.35
2022-10-11T19:09:41.385Z,10.20
2022-10-11T19:12:27.036Z,8.90
2022-10-11T19:15:16.548Z,10.10
2022-10-11T19:18:02.187Z,9.73
2022-10-11T19:20:48.222Z,10.50
2022-10-11T19:23:39.868Z,9.32
2022-10-11T19:26:33.661Z,9.20
2022-10-11T19:29:25.493Z,10.23
2022-10-11T19:32:11.238Z,10.15
2022-10-11T19:34:56.918Z,9.93
2022-10-11T19:37:42.680Z,10.30
2022-10-11T19:40:30.325Z,9.63
2022-10-11T19:43:22.745Z,9.30
2022-10-11T19:46:12.686Z,9.70
2022-10-11T19:49:01.119Z,9.65
2022-10-11T19:51:46.847Z,10.48
2022-10-11T19:54:32.693Z,11.13
2022-10-11T19:57:18.499Z,10.98
2022-10-11T20:00:04.864Z,9.20
2022-10-11T20:02:56.988Z,10.40
2022-10-11T20:05:42.764Z,9.00
2022-10-11T20:08:31.284Z,10.43
2022-10-11T20:11:21.155Z,10.00
2022-10-11T20:14:06.883Z,10.18
2022-10-11T20:16:52.518Z,10.10
2022-10-11T20:19:39.141Z,9.82
2022-10-11T20:22:24.662Z,11.07
2022-10-11T20:25:10.447Z,14.13
2022-10-11T20:27:56.306Z,11.05
2022-10-11T20:30:45.442Z,11.50
2022-10-11T20:33:32.813Z,11.30
2022-10-11T20:36:21.137Z,12.25
2022-10-11T20:39:09.174Z,10.93
2022-10-11T20:41:55.331Z,11.80
2022-10-11T20:44:41.241Z,11.63
2022-10-11T20:47:26.953Z,10.55
2022-10-11T20:50:22.817Z,10.75
2022-10-11T20:53:11.774Z,11.23
2022-10-11T20:55:59.562Z,11.50
2022-10-11T20:58:45.637Z,10.45
2022-10-11T21:01:34.429Z,11.27
2022-10-11T21:04:20.815Z,11.27
2022-10-11T21:07:06.438Z,11.10
2022-10-11T21:09:52.026Z,11.32
2022-10-11T21:12:37.655Z,12.27
2022-10-11T21:15:23.669Z,11.82
2022-10-11T21:18:08.901Z,12.43
2022-10-11T21:20:55.003Z,12.73
2022-10-11T21:23:41.664Z,11.73
2022-10-11T21:26:28.164Z,13.00
2022-10-11T21:29:14.113Z,13.15
2022-10-11T21:31:59.563Z,12.85
2022-10-11T21:34:45.401Z,13.85
2022-10-11T21:37:30.944Z,13.35
2022-10-11T21:40:16.608Z,13.30
2022-10-11T21:43:02.353Z,12.70
2022-10-11T21:45:47.794Z,12.77
2022-10-11T21:48:33.260Z,12.68
2022-10-11T21:51:27.338Z,13.93
2022-10-11T21:54:13.204Z,12.40
2022-10-11T21:56:58.616Z,12.38
2022-10-11T21:59:44.239Z,11.75
2022-10-11T22:02:29.850Z,12.02
2022-10-11T22:05:15.340Z,11.35
2022-10-11T22:08:01.069Z,12.65
2022-10-11T22:10:54.780Z,11.70
2022-10-11T22:13:42.098Z,11.65
2022-10-11T22:16:27.500Z,11.68
2022-10-11T22:19:13.598Z,11.68
2022-10-11T22:21:59.029Z,11.20
2022-10-11T22:24:45.304Z,11.02
2022-10-11T22:27:30.724Z,11.35
2022-10-11T22:30:17.007Z,11.23
2022-10-11T22:33:02.953Z,10.82
2022-10-11T22:35:53.140Z,11.07
2022-10-11T22:38:42.471Z,9.88
2022-10-11T22:41:28.017Z,10.45
2022-10-11T22:44:13.924Z,9.40
2022-10-11T22:46:59.453Z,8.90
2022-10-11T22:49:45.088Z,8.32
2022-10-11T22:52:30.623Z,7.55
2022-10-11T22:55:19.861Z,8.38
2022-10-11T22:58:05.742Z,7.72
2022-10-11T23:00:51.364Z,7.32
2022-10-11T23:03:37.323Z,6.80
2022-10-11T23:06:22.808Z,6.90
2022-10-11T23:09:08.446Z,6.10
2022-10-11T23:11:57.037Z,7.40
2022-10-11T23:14:42.306Z,6.93
2022-10-11T23:17:27.884Z,6.53
2022-10-11T23:20:13.373Z,6.40
2022-10-11T23:22:59.026Z,6.20
2022-10-11T23:25:44.557Z,7.10
2022-10-11T23:28:30.046Z,6.78
2022-10-11T23:31:17.650Z,7.32
2022-10-11T23:34:03.126Z,6.43
2022-10-11T23:36:48.810Z,7.85
2022-10-11T23:39:35.010Z,6.40
2022-10-11T23:42:20.498Z,6.28
2022-10-11T23:45:06.692Z,6.47
2022-10-11T23:47:52.078Z,6.25
2022-10-11T23:50:37.916Z,6.50
2022-10-11T23:53:23.333Z,6.20
2022-10-11T23:56:10.798Z,6.65
2022-10-11T23:58:56.666Z,6.72
